aviador You're here:

KHBI Decoded Metar

ASHEBORO MUNI in NC, USA
Report Time2017-12-15 23:40:00
UTC Time2017-12-15 23:44:14
Flight Rules vfr VFR
WindCalm
Visibility9999 m
Phenomena:N/A
Clouds:N/A
Expected CloudBase > 2,800 ft AGL from Temp-Dew spread
CeilingNone
Temp04°C (ISA -10)
Dew Point-3°C (61% RH)
AAT1.6°C
QNH1017 hPa
Density Alt-561 ft
Elevation673 ft
Report Wrong Elevation
Raw Report
METAR KHBI 152340Z AUTO 00000KT 10SM CLR 04/M03 A3004 RMK AO2 T00371026=

Extra information for KHBI:More info

Metar Taf Metar & Taf Last 4 Metars F.Rules Stats Wind Profile Meteogram Temp Stats Airport Information Weather charts Add Link Nearby VenuesMetar ALERT Operation Metar Decoded Social comments

AIRNAV info for KHBI